Terminal Aerodrome Forecast
Issued by NWS

Home | Current Version | Previous Version | Text Only | Print | Product List | Glossary On
Versions: 1 2 3 4 5 6 7 8 9 10 11 12 13 14 15 16 17 18 19 20 21 22 23 24 25 26 27 28 29 30
000
FTUS43 KLOT 232322
TAFDPA
TAF
KDPA 232322Z 2400/2424 33007KT P6SM OVC022
     FM240300 32004KT P6SM OVC015
     FM240900 00000KT 5SM BR OVC009
     FM241600 00000KT P6SM OVC012
     FM242100 10007KT P6SM OVC020=

USA.gov is the U.S. government's official web portal to all federal, state and local government web resources and services.